sensor_id;sensor_type;location;lat;lon;timestamp;temperature;humidity
35635;DHT22;21757;43.610;1.440;2023-04-25T00:01:36;14.40;99.90
35635;DHT22;21757;43.610;1.440;2023-04-25T00:04:03;14.40;99.90
35635;DHT22;21757;43.610;1.440;2023-04-25T00:06:31;14.40;99.90
35635;DHT22;21757;43.610;1.440;2023-04-25T00:08:57;14.40;99.90
35635;DHT22;21757;43.610;1.440;2023-04-25T00:11:23;14.50;99.90
35635;DHT22;21757;43.610;1.440;2023-04-25T00:13:50;14.40;99.90
35635;DHT22;21757;43.610;1.440;2023-04-25T00:16:19;14.50;99.90
35635;DHT22;21757;43.610;1.440;2023-04-25T00:18:45;14.50;99.90
35635;DHT22;21757;43.610;1.440;2023-04-25T00:21:17;14.50;99.90
35635;DHT22;21757;43.610;1.440;2023-04-25T00:23:43;14.50;99.90
35635;DHT22;21757;43.610;1.440;2023-04-25T00:26:11;14.50;99.90
35635;DHT22;21757;43.610;1.440;2023-04-25T00:28:37;14.60;99.90
35635;DHT22;21757;43.610;1.440;2023-04-25T00:31:03;14.60;99.90
35635;DHT22;21757;43.610;1.440;2023-04-25T00:33:29;14.50;99.90
35635;DHT22;21757;43.610;1.440;2023-04-25T00:35:55;14.50;99.90
35635;DHT22;21757;43.610;1.440;2023-04-25T00:38:21;14.60;99.90
35635;DHT22;21757;43.610;1.440;2023-04-25T00:40:47;14.40;99.90
35635;DHT22;21757;43.610;1.440;2023-04-25T00:43:13;14.40;99.90
35635;DHT22;21757;43.610;1.440;2023-04-25T00:45:39;14.40;99.90
35635;DHT22;21757;43.610;1.440;2023-04-25T00:48:06;14.30;99.90
35635;DHT22;21757;43.610;1.440;2023-04-25T00:50:33;14.30;99.90
35635;DHT22;21757;43.610;1.440;2023-04-25T00:53:00;14.40;99.90
35635;DHT22;21757;43.610;1.440;2023-04-25T00:55:27;14.30;99.90
35635;DHT22;21757;43.610;1.440;2023-04-25T00:57:53;14.30;99.90
35635;DHT22;21757;43.610;1.440;2023-04-25T01:00:18;14.40;99.90
35635;DHT22;21757;43.610;1.440;2023-04-25T01:02:45;14.40;99.90
35635;DHT22;21757;43.610;1.440;2023-04-25T01:05:10;14.40;99.90
35635;DHT22;21757;43.610;1.440;2023-04-25T01:07:37;14.40;99.90
35635;DHT22;21757;43.610;1.440;2023-04-25T01:10:04;14.40;99.90
35635;DHT22;21757;43.610;1.440;2023-04-25T01:12:30;14.50;99.90
35635;DHT22;21757;43.610;1.440;2023-04-25T01:14:56;14.50;99.90
35635;DHT22;21757;43.610;1.440;2023-04-25T01:17:22;14.50;99.90
35635;DHT22;21757;43.610;1.440;2023-04-25T01:19:48;14.40;99.90
35635;DHT22;21757;43.610;1.440;2023-04-25T01:22:14;14.40;99.90
35635;DHT22;21757;43.610;1.440;2023-04-25T01:24:41;14.40;99.90
35635;DHT22;21757;43.610;1.440;2023-04-25T01:27:07;14.30;99.90
35635;DHT22;21757;43.610;1.440;2023-04-25T01:29:33;14.20;99.90
35635;DHT22;21757;43.610;1.440;2023-04-25T01:32:00;14.30;99.90
35635;DHT22;21757;43.610;1.440;2023-04-25T01:34:26;14.30;99.90
35635;DHT22;21757;43.610;1.440;2023-04-25T01:36:53;14.20;99.90
35635;DHT22;21757;43.610;1.440;2023-04-25T01:39:19;14.20;99.90
35635;DHT22;21757;43.610;1.440;2023-04-25T01:41:46;14.20;99.90
35635;DHT22;21757;43.610;1.440;2023-04-25T01:44:13;14.20;99.90
35635;DHT22;21757;43.610;1.440;2023-04-25T01:46:39;14.20;99.90
35635;DHT22;21757;43.610;1.440;2023-04-25T01:49:05;14.20;99.90
35635;DHT22;21757;43.610;1.440;2023-04-25T01:51:31;14.20;99.90
35635;DHT22;21757;43.610;1.440;2023-04-25T01:53:57;14.20;99.90
35635;DHT22;21757;43.610;1.440;2023-04-25T01:56:23;14.20;99.90
35635;DHT22;21757;43.610;1.440;2023-04-25T01:58:48;14.20;99.90
35635;DHT22;21757;43.610;1.440;2023-04-25T02:01:14;14.20;99.90
35635;DHT22;21757;43.610;1.440;2023-04-25T02:03:40;14.20;99.90
35635;DHT22;21757;43.610;1.440;2023-04-25T02:06:06;14.20;1.00
35635;DHT22;21757;43.610;1.440;2023-04-25T02:08:32;14.20;1.00
35635;DHT22;21757;43.610;1.440;2023-04-25T02:10:57;14.20;1.00
35635;DHT22;21757;43.610;1.440;2023-04-25T02:13:23;14.30;1.00
35635;DHT22;21757;43.610;1.440;2023-04-25T02:15:49;14.30;99.90
35635;DHT22;21757;43.610;1.440;2023-04-25T02:18:14;14.30;99.90
35635;DHT22;21757;43.610;1.440;2023-04-25T02:20:42;14.30;99.90
35635;DHT22;21757;43.610;1.440;2023-04-25T02:23:08;14.30;99.90
35635;DHT22;21757;43.610;1.440;2023-04-25T02:25:34;14.30;99.90
35635;DHT22;21757;43.610;1.440;2023-04-25T02:28:00;14.30;99.90
35635;DHT22;21757;43.610;1.440;2023-04-25T02:30:25;14.30;99.90
35635;DHT22;21757;43.610;1.440;2023-04-25T02:32:51;14.30;99.90
35635;DHT22;21757;43.610;1.440;2023-04-25T02:35:17;14.20;99.90
35635;DHT22;21757;43.610;1.440;2023-04-25T02:37:43;14.20;99.90
35635;DHT22;21757;43.610;1.440;2023-04-25T02:40:09;14.10;99.90
35635;DHT22;21757;43.610;1.440;2023-04-25T02:42:35;14.10;99.90
35635;DHT22;21757;43.610;1.440;2023-04-25T02:45:01;14.20;99.90
35635;DHT22;21757;43.610;1.440;2023-04-25T02:47:27;14.20;99.90
35635;DHT22;21757;43.610;1.440;2023-04-25T02:49:53;14.20;1.00
35635;DHT22;21757;43.610;1.440;2023-04-25T02:52:19;14.30;99.90
35635;DHT22;21757;43.610;1.440;2023-04-25T02:54:45;14.40;99.90
35635;DHT22;21757;43.610;1.440;2023-04-25T02:57:10;14.40;99.90
35635;DHT22;21757;43.610;1.440;2023-04-25T02:59:36;14.40;99.90
35635;DHT22;21757;43.610;1.440;2023-04-25T03:02:02;14.50;99.90
35635;DHT22;21757;43.610;1.440;2023-04-25T03:04:28;14.50;99.90
35635;DHT22;21757;43.610;1.440;2023-04-25T03:06:53;14.50;99.90
35635;DHT22;21757;43.610;1.440;2023-04-25T03:09:19;14.50;99.90
35635;DHT22;21757;43.610;1.440;2023-04-25T03:11:45;14.40;99.90
35635;DHT22;21757;43.610;1.440;2023-04-25T03:14:12;14.40;99.90
35635;DHT22;21757;43.610;1.440;2023-04-25T03:16:38;14.50;99.90
35635;DHT22;21757;43.610;1.440;2023-04-25T03:19:04;14.40;1.00
35635;DHT22;21757;43.610;1.440;2023-04-25T03:21:32;14.40;1.00
35635;DHT22;21757;43.610;1.440;2023-04-25T03:23:59;14.30;1.00
35635;DHT22;21757;43.610;1.440;2023-04-25T03:26:24;14.40;1.00
35635;DHT22;21757;43.610;1.440;2023-04-25T03:28:50;14.30;1.00
35635;DHT22;21757;43.610;1.440;2023-04-25T03:31:16;14.30;1.00
35635;DHT22;21757;43.610;1.440;2023-04-25T03:33:42;14.40;1.00
35635;DHT22;21757;43.610;1.440;2023-04-25T03:36:07;14.40;1.00
35635;DHT22;21757;43.610;1.440;2023-04-25T03:38:33;14.30;1.00
35635;DHT22;21757;43.610;1.440;2023-04-25T03:40:59;14.30;1.00
35635;DHT22;21757;43.610;1.440;2023-04-25T03:43:24;14.30;1.00
35635;DHT22;21757;43.610;1.440;2023-04-25T03:45:50;14.20;1.00
35635;DHT22;21757;43.610;1.440;2023-04-25T03:48:16;14.20;10.70
35635;DHT22;21757;43.610;1.440;2023-04-25T03:50:42;14.20;1.00
35635;DHT22;21757;43.610;1.440;2023-04-25T03:53:07;14.20;1.00
35635;DHT22;21757;43.610;1.440;2023-04-25T03:55:33;14.20;1.00
35635;DHT22;21757;43.610;1.440;2023-04-25T03:57:59;14.20;1.00
35635;DHT22;21757;43.610;1.440;2023-04-25T04:00:25;14.20;1.00
35635;DHT22;21757;43.610;1.440;2023-04-25T04:02:51;14.10;1.00
35635;DHT22;21757;43.610;1.440;2023-04-25T04:05:17;14.20;1.00
35635;DHT22;21757;43.610;1.440;2023-04-25T04:07:42;14.20;1.00
35635;DHT22;21757;43.610;1.440;2023-04-25T04:10:11;14.20;1.00
35635;DHT22;21757;43.610;1.440;2023-04-25T04:12:37;14.30;1.00
35635;DHT22;21757;43.610;1.440;2023-04-25T04:15:07;14.20;1.00
35635;DHT22;21757;43.610;1.440;2023-04-25T04:17:33;14.30;1.00
35635;DHT22;21757;43.610;1.440;2023-04-25T04:19:59;14.30;1.00
35635;DHT22;21757;43.610;1.440;2023-04-25T04:22:25;14.30;1.00
35635;DHT22;21757;43.610;1.440;2023-04-25T04:24:50;14.30;1.00
35635;DHT22;21757;43.610;1.440;2023-04-25T04:27:19;14.30;1.00
35635;DHT22;21757;43.610;1.440;2023-04-25T04:29:46;14.30;1.00
35635;DHT22;21757;43.610;1.440;2023-04-25T04:32:12;14.40;1.00
35635;DHT22;21757;43.610;1.440;2023-04-25T04:34:38;14.30;1.00
35635;DHT22;21757;43.610;1.440;2023-04-25T04:37:05;14.30;1.00
35635;DHT22;21757;43.610;1.440;2023-04-25T04:39:32;14.30;1.00
35635;DHT22;21757;43.610;1.440;2023-04-25T04:41:58;14.30;1.00
35635;DHT22;21757;43.610;1.440;2023-04-25T04:44:24;14.30;1.00
35635;DHT22;21757;43.610;1.440;2023-04-25T04:46:50;14.40;1.00
35635;DHT22;21757;43.610;1.440;2023-04-25T04:49:16;14.30;1.00
35635;DHT22;21757;43.610;1.440;2023-04-25T04:51:43;14.40;1.00
35635;DHT22;21757;43.610;1.440;2023-04-25T04:54:12;14.40;1.00
35635;DHT22;21757;43.610;1.440;2023-04-25T04:56:38;14.40;1.00
35635;DHT22;21757;43.610;1.440;2023-04-25T04:59:03;14.40;1.00
35635;DHT22;21757;43.610;1.440;2023-04-25T05:01:29;14.40;1.00
35635;DHT22;21757;43.610;1.440;2023-04-25T05:03:56;14.40;1.00
35635;DHT22;21757;43.610;1.440;2023-04-25T05:06:26;14.40;1.00
35635;DHT22;21757;43.610;1.440;2023-04-25T05:08:52;14.50;1.00
35635;DHT22;21757;43.610;1.440;2023-04-25T05:11:19;14.50;1.00
35635;DHT22;21757;43.610;1.440;2023-04-25T05:13:44;14.50;1.00
35635;DHT22;21757;43.610;1.440;2023-04-25T05:16:11;14.50;1.00
35635;DHT22;21757;43.610;1.440;2023-04-25T05:18:37;14.50;1.00
35635;DHT22;21757;43.610;1.440;2023-04-25T05:21:03;14.50;1.00
35635;DHT22;21757;43.610;1.440;2023-04-25T05:23:29;14.50;1.00
35635;DHT22;21757;43.610;1.440;2023-04-25T05:25:56;14.60;1.00
35635;DHT22;21757;43.610;1.440;2023-04-25T05:28:22;14.60;1.00
35635;DHT22;21757;43.610;1.440;2023-04-25T05:30:48;14.60;1.00
35635;DHT22;21757;43.610;1.440;2023-04-25T05:33:14;14.70;1.00
35635;DHT22;21757;43.610;1.440;2023-04-25T05:35:40;14.70;1.00
35635;DHT22;21757;43.610;1.440;2023-04-25T05:38:05;14.70;1.00
35635;DHT22;21757;43.610;1.440;2023-04-25T05:40:32;14.60;1.00
35635;DHT22;21757;43.610;1.440;2023-04-25T05:42:57;14.60;1.00
35635;DHT22;21757;43.610;1.440;2023-04-25T05:45:23;14.70;1.00
35635;DHT22;21757;43.610;1.440;2023-04-25T05:47:49;14.70;1.00
35635;DHT22;21757;43.610;1.440;2023-04-25T05:50:15;14.70;1.00
35635;DHT22;21757;43.610;1.440;2023-04-25T05:52:40;14.80;1.00
35635;DHT22;21757;43.610;1.440;2023-04-25T05:55:06;14.80;1.00
35635;DHT22;21757;43.610;1.440;2023-04-25T05:57:32;14.80;1.00
35635;DHT22;21757;43.610;1.440;2023-04-25T05:59:58;14.90;1.00
35635;DHT22;21757;43.610;1.440;2023-04-25T06:02:24;14.80;1.00
35635;DHT22;21757;43.610;1.440;2023-04-25T06:04:51;14.90;1.00
35635;DHT22;21757;43.610;1.440;2023-04-25T06:07:17;14.90;1.00
35635;DHT22;21757;43.610;1.440;2023-04-25T06:09:43;14.90;1.00
35635;DHT22;21757;43.610;1.440;2023-04-25T06:12:09;14.90;1.00
35635;DHT22;21757;43.610;1.440;2023-04-25T06:14:35;14.90;1.00
35635;DHT22;21757;43.610;1.440;2023-04-25T06:17:03;15.00;1.00
35635;DHT22;21757;43.610;1.440;2023-04-25T06:19:36;14.90;1.00
35635;DHT22;21757;43.610;1.440;2023-04-25T06:22:02;15.00;1.00
35635;DHT22;21757;43.610;1.440;2023-04-25T06:24:28;15.10;1.00
35635;DHT22;21757;43.610;1.440;2023-04-25T06:26:54;15.10;1.00
35635;DHT22;21757;43.610;1.440;2023-04-25T06:29:20;15.20;1.00
35635;DHT22;21757;43.610;1.440;2023-04-25T06:31:46;15.30;99.90
35635;DHT22;21757;43.610;1.440;2023-04-25T06:34:11;15.60;99.90
35635;DHT22;21757;43.610;1.440;2023-04-25T06:36:37;15.90;99.90
35635;DHT22;21757;43.610;1.440;2023-04-25T06:39:03;16.00;99.90
35635;DHT22;21757;43.610;1.440;2023-04-25T06:41:29;16.30;99.90
35635;DHT22;21757;43.610;1.440;2023-04-25T06:43:54;16.30;99.90
35635;DHT22;21757;43.610;1.440;2023-04-25T06:46:20;16.60;99.90
35635;DHT22;21757;43.610;1.440;2023-04-25T06:48:46;16.80;99.90
35635;DHT22;21757;43.610;1.440;2023-04-25T06:51:12;16.60;99.90
35635;DHT22;21757;43.610;1.440;2023-04-25T06:53:39;16.50;99.90
35635;DHT22;21757;43.610;1.440;2023-04-25T06:56:05;16.50;99.90
35635;DHT22;21757;43.610;1.440;2023-04-25T06:58:31;16.40;99.90
35635;DHT22;21757;43.610;1.440;2023-04-25T07:00:57;16.30;99.90
35635;DHT22;21757;43.610;1.440;2023-04-25T07:03:23;16.30;99.90
35635;DHT22;21757;43.610;1.440;2023-04-25T07:05:49;16.10;99.90
35635;DHT22;21757;43.610;1.440;2023-04-25T07:08:15;16.00;99.90
35635;DHT22;21757;43.610;1.440;2023-04-25T07:10:41;15.90;99.90
35635;DHT22;21757;43.610;1.440;2023-04-25T07:13:07;15.80;99.90
35635;DHT22;21757;43.610;1.440;2023-04-25T07:15:33;15.90;99.90
35635;DHT22;21757;43.610;1.440;2023-04-25T07:17:58;15.80;99.90
35635;DHT22;21757;43.610;1.440;2023-04-25T07:20:24;15.70;99.90
35635;DHT22;21757;43.610;1.440;2023-04-25T07:22:50;15.30;99.90
35635;DHT22;21757;43.610;1.440;2023-04-25T07:25:17;14.40;1.00
35635;DHT22;21757;43.610;1.440;2023-04-25T07:27:43;14.20;99.90
35635;DHT22;21757;43.610;1.440;2023-04-25T07:30:08;13.80;99.90
35635;DHT22;21757;43.610;1.440;2023-04-25T07:32:34;13.60;99.90
35635;DHT22;21757;43.610;1.440;2023-04-25T07:35:00;13.50;99.90
35635;DHT22;21757;43.610;1.440;2023-04-25T07:37:27;13.50;99.90
35635;DHT22;21757;43.610;1.440;2023-04-25T07:39:52;13.70;99.90
35635;DHT22;21757;43.610;1.440;2023-04-25T07:42:18;14.00;99.90
35635;DHT22;21757;43.610;1.440;2023-04-25T07:44:44;13.90;99.90
35635;DHT22;21757;43.610;1.440;2023-04-25T07:47:10;13.90;99.90
35635;DHT22;21757;43.610;1.440;2023-04-25T07:49:37;14.00;99.90
35635;DHT22;21757;43.610;1.440;2023-04-25T07:52:04;13.90;99.90
35635;DHT22;21757;43.610;1.440;2023-04-25T07:54:31;13.60;99.90
35635;DHT22;21757;43.610;1.440;2023-04-25T07:56:58;13.70;99.90
35635;DHT22;21757;43.610;1.440;2023-04-25T07:59:23;13.50;1.00
35635;DHT22;21757;43.610;1.440;2023-04-25T08:01:49;13.50;1.00
35635;DHT22;21757;43.610;1.440;2023-04-25T08:04:16;13.40;1.00
35635;DHT22;21757;43.610;1.440;2023-04-25T08:06:42;13.10;1.00
35635;DHT22;21757;43.610;1.440;2023-04-25T08:09:08;13.10;1.00
35635;DHT22;21757;43.610;1.440;2023-04-25T08:11:35;13.00;1.00
35635;DHT22;21757;43.610;1.440;2023-04-25T08:14:01;13.00;1.00
35635;DHT22;21757;43.610;1.440;2023-04-25T08:16:27;13.10;1.00
35635;DHT22;21757;43.610;1.440;2023-04-25T08:18:53;13.00;99.90
35635;DHT22;21757;43.610;1.440;2023-04-25T08:21:19;13.00;99.90
35635;DHT22;21757;43.610;1.440;2023-04-25T08:23:45;13.10;99.90
35635;DHT22;21757;43.610;1.440;2023-04-25T08:26:11;13.30;99.90
35635;DHT22;21757;43.610;1.440;2023-04-25T08:28:37;13.30;99.90
35635;DHT22;21757;43.610;1.440;2023-04-25T08:31:03;13.30;1.00
35635;DHT22;21757;43.610;1.440;2023-04-25T08:33:29;13.40;1.00
35635;DHT22;21757;43.610;1.440;2023-04-25T08:35:55;13.30;1.00
35635;DHT22;21757;43.610;1.440;2023-04-25T08:38:21;13.40;1.00
35635;DHT22;21757;43.610;1.440;2023-04-25T08:40:49;13.30;1.00
35635;DHT22;21757;43.610;1.440;2023-04-25T08:43:18;13.50;1.00
35635;DHT22;21757;43.610;1.440;2023-04-25T08:45:44;13.60;1.00
35635;DHT22;21757;43.610;1.440;2023-04-25T08:48:13;13.90;1.00
35635;DHT22;21757;43.610;1.440;2023-04-25T08:50:53;13.80;1.00
35635;DHT22;21757;43.610;1.440;2023-04-25T08:53:26;14.10;1.00
35635;DHT22;21757;43.610;1.440;2023-04-25T08:55:54;14.00;1.00
35635;DHT22;21757;43.610;1.440;2023-04-25T08:58:20;13.90;1.00
35635;DHT22;21757;43.610;1.440;2023-04-25T09:00:47;13.80;1.00
35635;DHT22;21757;43.610;1.440;2023-04-25T09:03:13;14.10;35.40
35635;DHT22;21757;43.610;1.440;2023-04-25T09:05:40;14.10;1.00
35635;DHT22;21757;43.610;1.440;2023-04-25T09:08:06;14.40;38.10
35635;DHT22;21757;43.610;1.440;2023-04-25T09:10:33;14.30;1.00
35635;DHT22;21757;43.610;1.440;2023-04-25T09:13:09;14.50;99.90
35635;DHT22;21757;43.610;1.440;2023-04-25T09:15:49;14.50;64.60
35635;DHT22;21757;43.610;1.440;2023-04-25T09:18:36;14.70;1.00
35635;DHT22;21757;43.610;1.440;2023-04-25T09:21:09;14.90;1.00
35635;DHT22;21757;43.610;1.440;2023-04-25T09:23:46;15.00;1.00
35635;DHT22;21757;43.610;1.440;2023-04-25T09:26:20;14.80;1.00
35635;DHT22;21757;43.610;1.440;2023-04-25T09:28:46;14.70;1.00
35635;DHT22;21757;43.610;1.440;2023-04-25T09:31:24;14.70;1.00
35635;DHT22;21757;43.610;1.440;2023-04-25T09:33:49;14.90;1.00
35635;DHT22;21757;43.610;1.440;2023-04-25T09:36:15;14.90;1.00
35635;DHT22;21757;43.610;1.440;2023-04-25T09:38:45;14.50;1.00
35635;DHT22;21757;43.610;1.440;2023-04-25T09:41:11;14.60;99.90
35635;DHT22;21757;43.610;1.440;2023-04-25T09:43:38;14.50;50.30
35635;DHT22;21757;43.610;1.440;2023-04-25T09:46:10;14.30;96.50
35635;DHT22;21757;43.610;1.440;2023-04-25T09:48:37;14.30;98.00
35635;DHT22;21757;43.610;1.440;2023-04-25T09:53:28;14.10;99.90
35635;DHT22;21757;43.610;1.440;2023-04-25T09:55:55;14.10;99.90
35635;DHT22;21757;43.610;1.440;2023-04-25T09:58:24;13.80;93.40
35635;DHT22;21757;43.610;1.440;2023-04-25T10:00:53;13.90;1.00
35635;DHT22;21757;43.610;1.440;2023-04-25T10:03:20;14.00;1.00
35635;DHT22;21757;43.610;1.440;2023-04-25T10:05:48;14.20;1.00
35635;DHT22;21757;43.610;1.440;2023-04-25T10:08:15;14.40;1.00
35635;DHT22;21757;43.610;1.440;2023-04-25T10:10:42;14.60;1.00
35635;DHT22;21757;43.610;1.440;2023-04-25T10:13:08;14.80;1.00
35635;DHT22;21757;43.610;1.440;2023-04-25T10:15:35;14.90;1.00
35635;DHT22;21757;43.610;1.440;2023-04-25T10:18:02;14.90;1.00
35635;DHT22;21757;43.610;1.440;2023-04-25T10:20:29;14.60;1.00
35635;DHT22;21757;43.610;1.440;2023-04-25T10:23:10;14.70;1.00
35635;DHT22;21757;43.610;1.440;2023-04-25T10:25:37;15.00;1.00
35635;DHT22;21757;43.610;1.440;2023-04-25T10:28:04;15.60;1.00
35635;DHT22;21757;43.610;1.440;2023-04-25T10:30:29;15.90;1.00
35635;DHT22;21757;43.610;1.440;2023-04-25T10:32:55;15.70;1.00
35635;DHT22;21757;43.610;1.440;2023-04-25T10:35:27;15.60;1.00
35635;DHT22;21757;43.610;1.440;2023-04-25T10:38:03;15.30;1.00
35635;DHT22;21757;43.610;1.440;2023-04-25T10:40:30;15.60;1.00
35635;DHT22;21757;43.610;1.440;2023-04-25T10:46:02;15.60;1.00
35635;DHT22;21757;43.610;1.440;2023-04-25T10:48:31;15.20;26.20
35635;DHT22;21757;43.610;1.440;2023-04-25T10:51:10;15.20;13.10
35635;DHT22;21757;43.610;1.440;2023-04-25T10:53:36;15.20;1.00
35635;DHT22;21757;43.610;1.440;2023-04-25T10:56:17;15.50;1.00
35635;DHT22;21757;43.610;1.440;2023-04-25T10:58:44;15.50;1.00
35635;DHT22;21757;43.610;1.440;2023-04-25T11:01:12;15.40;1.00
35635;DHT22;21757;43.610;1.440;2023-04-25T11:03:41;15.40;1.00
35635;DHT22;21757;43.610;1.440;2023-04-25T11:06:16;15.40;1.00
35635;DHT22;21757;43.610;1.440;2023-04-25T11:08:50;15.90;1.00
35635;DHT22;21757;43.610;1.440;2023-04-25T11:11:17;16.00;1.00
35635;DHT22;21757;43.610;1.440;2023-04-25T11:13:43;15.70;1.00
35635;DHT22;21757;43.610;1.440;2023-04-25T11:16:09;15.80;1.00
35635;DHT22;21757;43.610;1.440;2023-04-25T11:18:35;15.90;1.00
35635;DHT22;21757;43.610;1.440;2023-04-25T11:21:02;16.00;1.00
35635;DHT22;21757;43.610;1.440;2023-04-25T11:23:30;16.80;1.00
35635;DHT22;21757;43.610;1.440;2023-04-25T11:25:56;17.20;1.00
35635;DHT22;21757;43.610;1.440;2023-04-25T11:28:22;16.70;1.00
35635;DHT22;21757;43.610;1.440;2023-04-25T11:30:52;17.00;1.00
35635;DHT22;21757;43.610;1.440;2023-04-25T11:33:18;17.80;1.00
35635;DHT22;21757;43.610;1.440;2023-04-25T11:35:48;18.80;38.20
35635;DHT22;21757;43.610;1.440;2023-04-25T11:38:13;18.70;1.00
35635;DHT22;21757;43.610;1.440;2023-04-25T11:40:40;18.50;1.00
35635;DHT22;21757;43.610;1.440;2023-04-25T11:43:06;18.10;1.00
35635;DHT22;21757;43.610;1.440;2023-04-25T11:45:32;17.40;1.00
35635;DHT22;21757;43.610;1.440;2023-04-25T11:47:58;17.10;1.00
35635;DHT22;21757;43.610;1.440;2023-04-25T11:50:24;16.90;1.00
35635;DHT22;21757;43.610;1.440;2023-04-25T11:52:49;17.20;1.00
35635;DHT22;21757;43.610;1.440;2023-04-25T11:55:19;17.50;1.00
35635;DHT22;21757;43.610;1.440;2023-04-25T11:57:47;17.60;1.00
35635;DHT22;21757;43.610;1.440;2023-04-25T12:00:21;17.70;1.00
35635;DHT22;21757;43.610;1.440;2023-04-25T12:02:51;17.20;1.00
35635;DHT22;21757;43.610;1.440;2023-04-25T12:05:17;17.30;1.00
35635;DHT22;21757;43.610;1.440;2023-04-25T12:07:43;17.40;1.00
35635;DHT22;21757;43.610;1.440;2023-04-25T12:10:10;17.40;1.00
35635;DHT22;21757;43.610;1.440;2023-04-25T12:12:38;17.40;1.00
35635;DHT22;21757;43.610;1.440;2023-04-25T12:15:25;17.50;1.00
35635;DHT22;21757;43.610;1.440;2023-04-25T12:17:52;17.80;1.00
35635;DHT22;21757;43.610;1.440;2023-04-25T12:20:20;17.90;1.00
35635;DHT22;21757;43.610;1.440;2023-04-25T12:22:49;17.20;1.00
35635;DHT22;21757;43.610;1.440;2023-04-25T12:25:37;18.00;1.00
35635;DHT22;21757;43.610;1.440;2023-04-25T12:28:20;17.90;1.00
35635;DHT22;21757;43.610;1.440;2023-04-25T12:33:24;17.60;1.00
35635;DHT22;21757;43.610;1.440;2023-04-25T12:35:50;17.40;1.00
35635;DHT22;21757;43.610;1.440;2023-04-25T12:38:28;18.40;1.00
35635;DHT22;21757;43.610;1.440;2023-04-25T12:40:56;18.00;1.00
35635;DHT22;21757;43.610;1.440;2023-04-25T12:43:22;17.50;1.00
35635;DHT22;21757;43.610;1.440;2023-04-25T12:45:49;17.20;1.00
35635;DHT22;21757;43.610;1.440;2023-04-25T12:48:16;17.50;1.00
35635;DHT22;21757;43.610;1.440;2023-04-25T12:50:42;17.40;1.00
35635;DHT22;21757;43.610;1.440;2023-04-25T12:53:08;16.90;1.00
35635;DHT22;21757;43.610;1.440;2023-04-25T12:55:34;16.90;1.00
35635;DHT22;21757;43.610;1.440;2023-04-25T12:57:59;17.00;1.00
35635;DHT22;21757;43.610;1.440;2023-04-25T13:00:25;17.30;1.00
35635;DHT22;21757;43.610;1.440;2023-04-25T13:02:52;17.20;1.00
35635;DHT22;21757;43.610;1.440;2023-04-25T13:05:17;17.10;1.00
35635;DHT22;21757;43.610;1.440;2023-04-25T13:07:43;17.00;1.00
35635;DHT22;21757;43.610;1.440;2023-04-25T13:10:09;17.20;1.00
35635;DHT22;21757;43.610;1.440;2023-04-25T13:12:35;17.20;1.00
35635;DHT22;21757;43.610;1.440;2023-04-25T13:15:00;16.80;1.00
35635;DHT22;21757;43.610;1.440;2023-04-25T13:17:26;16.70;1.00
35635;DHT22;21757;43.610;1.440;2023-04-25T13:19:51;17.30;1.00
35635;DHT22;21757;43.610;1.440;2023-04-25T13:22:17;17.10;1.00
35635;DHT22;21757;43.610;1.440;2023-04-25T13:24:46;16.60;1.00
35635;DHT22;21757;43.610;1.440;2023-04-25T13:27:13;17.00;1.00
35635;DHT22;21757;43.610;1.440;2023-04-25T13:29:38;16.90;1.00
35635;DHT22;21757;43.610;1.440;2023-04-25T13:32:06;16.80;1.00
35635;DHT22;21757;43.610;1.440;2023-04-25T13:34:32;17.00;1.00
35635;DHT22;21757;43.610;1.440;2023-04-25T13:36:58;17.20;1.00
35635;DHT22;21757;43.610;1.440;2023-04-25T13:39:26;17.80;1.00
35635;DHT22;21757;43.610;1.440;2023-04-25T13:41:52;17.70;1.00
35635;DHT22;21757;43.610;1.440;2023-04-25T13:44:17;16.90;1.00
35635;DHT22;21757;43.610;1.440;2023-04-25T13:46:43;18.10;1.00
35635;DHT22;21757;43.610;1.440;2023-04-25T13:49:12;18.30;1.00
35635;DHT22;21757;43.610;1.440;2023-04-25T13:51:38;18.00;1.00
35635;DHT22;21757;43.610;1.440;2023-04-25T13:54:04;17.90;1.00
35635;DHT22;21757;43.610;1.440;2023-04-25T13:56:30;18.30;1.00
35635;DHT22;21757;43.610;1.440;2023-04-25T13:58:55;17.60;1.00
35635;DHT22;21757;43.610;1.440;2023-04-25T14:01:24;17.10;1.00
35635;DHT22;21757;43.610;1.440;2023-04-25T14:03:50;16.90;1.00
35635;DHT22;21757;43.610;1.440;2023-04-25T14:06:15;16.40;1.00
35635;DHT22;21757;43.610;1.440;2023-04-25T14:08:48;16.20;1.00
35635;DHT22;21757;43.610;1.440;2023-04-25T14:11:15;16.00;1.00
35635;DHT22;21757;43.610;1.440;2023-04-25T14:13:44;15.90;1.00
35635;DHT22;21757;43.610;1.440;2023-04-25T14:16:09;16.10;1.00
35635;DHT22;21757;43.610;1.440;2023-04-25T14:18:35;16.20;1.00
35635;DHT22;21757;43.610;1.440;2023-04-25T14:21:01;16.50;1.00
35635;DHT22;21757;43.610;1.440;2023-04-25T14:23:26;16.60;1.00
35635;DHT22;21757;43.610;1.440;2023-04-25T14:25:52;16.40;1.00
35635;DHT22;21757;43.610;1.440;2023-04-25T14:28:19;16.50;1.00
35635;DHT22;21757;43.610;1.440;2023-04-25T14:30:45;16.50;1.00
35635;DHT22;21757;43.610;1.440;2023-04-25T14:33:11;16.60;1.00
35635;DHT22;21757;43.610;1.440;2023-04-25T14:35:37;17.50;1.00
35635;DHT22;21757;43.610;1.440;2023-04-25T14:38:03;17.80;1.00
35635;DHT22;21757;43.610;1.440;2023-04-25T14:40:28;17.30;1.00
35635;DHT22;21757;43.610;1.440;2023-04-25T14:42:54;17.00;1.00
35635;DHT22;21757;43.610;1.440;2023-04-25T14:45:20;17.70;1.00
35635;DHT22;21757;43.610;1.440;2023-04-25T14:47:46;18.20;1.00
35635;DHT22;21757;43.610;1.440;2023-04-25T14:50:11;18.20;1.00
35635;DHT22;21757;43.610;1.440;2023-04-25T14:52:37;17.80;1.00
35635;DHT22;21757;43.610;1.440;2023-04-25T14:55:03;18.30;1.00
35635;DHT22;21757;43.610;1.440;2023-04-25T14:57:33;17.70;1.00
35635;DHT22;21757;43.610;1.440;2023-04-25T14:59:59;17.30;1.00
35635;DHT22;21757;43.610;1.440;2023-04-25T15:02:25;17.40;1.00
35635;DHT22;21757;43.610;1.440;2023-04-25T15:04:52;17.30;1.00
35635;DHT22;21757;43.610;1.440;2023-04-25T15:07:17;17.10;1.00
35635;DHT22;21757;43.610;1.440;2023-04-25T15:09:43;17.00;1.00
35635;DHT22;21757;43.610;1.440;2023-04-25T15:12:09;16.90;1.00
35635;DHT22;21757;43.610;1.440;2023-04-25T15:14:35;16.90;1.00
35635;DHT22;21757;43.610;1.440;2023-04-25T15:17:01;16.90;1.00
35635;DHT22;21757;43.610;1.440;2023-04-25T15:19:27;16.80;1.00
35635;DHT22;21757;43.610;1.440;2023-04-25T15:21:53;17.00;1.00
35635;DHT22;21757;43.610;1.440;2023-04-25T15:24:19;17.20;1.00
35635;DHT22;21757;43.610;1.440;2023-04-25T15:26:45;17.20;1.00
35635;DHT22;21757;43.610;1.440;2023-04-25T15:29:11;16.80;1.00
35635;DHT22;21757;43.610;1.440;2023-04-25T15:31:37;17.00;1.00
35635;DHT22;21757;43.610;1.440;2023-04-25T15:34:03;16.90;1.00
35635;DHT22;21757;43.610;1.440;2023-04-25T15:36:29;16.40;1.00
35635;DHT22;21757;43.610;1.440;2023-04-25T15:38:55;16.40;1.00
35635;DHT22;21757;43.610;1.440;2023-04-25T15:41:21;16.30;1.00
35635;DHT22;21757;43.610;1.440;2023-04-25T15:43:47;16.10;1.00
35635;DHT22;21757;43.610;1.440;2023-04-25T15:46:13;16.20;1.00